WetterOnline ( http://www.wetteronline.de )

Wetter aktuell Trier

Aktuelles Wetter: Trier/Petrisberg (273m)

6-stündlich | Neueste Meldungen
Ortszeit Temperatur Wetter
Mo, 24.09. 8:00 4.9° C Nebel
Mo, 24.09. 2:00 7.6° C fast wolkenlos
So, 23.09. 20:00 10.6° C bedeckt
So, 23.09. 14:00 20.0° C Regen
So, 23.09. 8:00 15.8° C Sprühregen
So, 23.09. 2:00 10.4° C Sprühregen
Sa, 22.09. 20:00 11.3° C leichter Regen
Sa, 22.09. 14:00 16.2° C wolkig
Ortszeit Temperatur Wetter
Mo, 24.09. 10:00 7.8° C wolkenlos
Mo, 24.09. 9:50 7.8° C wolkenlos
Mo, 24.09. 9:40 7.5° C fast wolkenlos
Mo, 24.09. 9:30 6.9° C bewölkt
Mo, 24.09. 9:20 6.9° C bedeckt
Mo, 24.09. 9:10 6.2° C Nebel
Mo, 24.09. 9:00 5.5° C Nebel
Mo, 24.09. 8:30 5.3° C Nebel
Mo, 24.09. 8:00 4.9° C Nebel
Mo, 24.09. 7:30 5.5° C bewölkt
Mo, 24.09. 7:00 5.2° C Nebel
Ortszeit Relative Feuchte Sichtweite
Mo, 24.09. 8:00 98% 0.3 km
Mo, 24.09. 2:00 87% 70 km
So, 23.09. 20:00 90% 70 km
So, 23.09. 14:00 86% 60 km
So, 23.09. 8:00 97% 18 km
So, 23.09. 2:00 95% 20 km
Sa, 22.09. 20:00 85% 55 km
Sa, 22.09. 14:00 53% 70 km
Ortszeit Relative Feuchte Sichtweite
Mo, 24.09. 10:00 88% 35 km
Mo, 24.09. 9:50 88% -
Mo, 24.09. 9:40 90% -
Mo, 24.09. 9:30 95% 20 km
Mo, 24.09. 9:20 95% -
Mo, 24.09. 9:10 98% -
Mo, 24.09. 9:00 98% 100 m
Mo, 24.09. 8:30 98% 100 m
Mo, 24.09. 8:00 98% 0.3 km
Mo, 24.09. 7:30 97% 1.1 km
Mo, 24.09. 7:00 98% 100 m
Ortszeit Niederschlagsmenge Niederschlagsart
Mo, 24.09. 8:00 0.0 l/m2 in 12 Std. -
Mo, 24.09. 2:00 0.0 l/m2 in 6 Std. -
So, 23.09. 20:00 14 l/m2 in 12 Std. Regenschauer
So, 23.09. 14:00 0.7 l/m2 in 6 Std. Regen
So, 23.09. 8:00 8 l/m2 in 12 Std. Regen
So, 23.09. 2:00 3 l/m2 in 6 Std. Regen
Sa, 22.09. 20:00 0.6 l/m2 in 12 Std. Regen
Sa, 22.09. 14:00 0.0 l/m2 in 6 Std. -
Ortszeit Niederschlagsmenge Niederschlagsart
Mo, 24.09. 10:00 0.0 l/m2 in 1 Std. -
Mo, 24.09. 9:50 keine Meldung -
Mo, 24.09. 9:40 keine Meldung -
Mo, 24.09. 9:30 0.0 l/m2 in 1 Std. -
Mo, 24.09. 9:20 keine Meldung -
Mo, 24.09. 9:10 keine Meldung -
Mo, 24.09. 9:00 0.0 l/m2 in 1 Std. -
Mo, 24.09. 8:30 0.0 l/m2 in 1 Std. -
Mo, 24.09. 8:00 0.0 l/m2 in 1 Std. -
Mo, 24.09. 7:30 0.0 l/m2 in 1 Std. -
Mo, 24.09. 7:00 0.0 l/m2 in 1 Std. -
Ortszeit Stärke Spitze Richtung
km/h Bft. km/h Grad Sektor
Mo, 24.09. 8:00 6 1 11 210° SW
Mo, 24.09. 2:00 6 1 35 260° W
So, 23.09. 20:00 13 3 100 320° NW
So, 23.09. 14:00 41 6 59 210° SW
So, 23.09. 8:00 25 4 43 210° SW
So, 23.09. 2:00 14 3 22 160° S
Sa, 22.09. 20:00 4 1 36 130° SO
Sa, 22.09. 14:00 25 4 40 210° SW
Ortszeit Stärke Spitze Richtung
km/h Bft. km/h Grad Sektor
Mo, 24.09. 10:00 6 1 9 210° SW
Mo, 24.09. 9:50 6 1 - 210° SW
Mo, 24.09. 9:40 6 1 - 200° S
Mo, 24.09. 9:30 6 1 7 180° S
Mo, 24.09. 9:20 6 1 - 180° S
Mo, 24.09. 9:10 4 1 - 140° SO
Mo, 24.09. 9:00 6 1 9 220° SW
Mo, 24.09. 8:30 6 1 9 190° S
Mo, 24.09. 8:00 6 1 11 210° SW
Mo, 24.09. 7:30 7 2 11 190° S
Mo, 24.09. 7:00 6 1 9 210° SW
Ortszeit Untergrenze Bedeckung Gattung
total tief tief mittel hoch
Mo, 24.09. 8:00 <30 m 7/8 7/8 - - -
Mo, 24.09. 2:00 1140 m 1/8 1/8 - - -
So, 23.09. 20:00 360 m 8/8 8/8 - - -
So, 23.09. 14:00 360 m 8/8 8/8 - - -
So, 23.09. 8:00 150 m 8/8 8/8 - - -
So, 23.09. 2:00 540 m 8/8 8/8 - - -
Sa, 22.09. 20:00 1470 m 8/8 6/8 - - -
Sa, 22.09. 14:00 1110 m 8/8 1/8 - - -
Ortszeit Bedeckungsgrad in Achtel und Wolkenuntergrenze
Mo, 24.09. 10:00 keine Wolken
Mo, 24.09. 9:50 keine Wolken
Mo, 24.09. 9:40 1(1500m)
Mo, 24.09. 9:30 2(<30m) 4(1500m) 9
Mo, 24.09. 9:20 9 9 9
Mo, 24.09. 9:10 7(<30m)
Mo, 24.09. 9:00 7(<30m)
Mo, 24.09. 8:30 8(<30m)
Mo, 24.09. 8:00 6(<30m) 7(1200m)
Mo, 24.09. 7:30 7(<30m)
Mo, 24.09. 7:00 6(<30m) 7(1800m)
Ortszeit Luftdruck NN (hPa) Tendenz (hPa in 3 Std.)
Mo, 24.09. 8:00 1033 + 2,6
Mo, 24.09. 2:00 1027 + 4,5
So, 23.09. 20:00 1016 + 6,2
So, 23.09. 14:00 1007 - 2,9
So, 23.09. 8:00 1011 - 1,7
So, 23.09. 2:00 1018 - 2,6
Sa, 22.09. 20:00 1020 - 0,9
Sa, 22.09. 14:00 1022 - 1,4
Ortszeit Luftdruck NN (hPa) Tendenz (hPa in 3 Std.)
Mo, 24.09. 10:00 1035 + 2,7
Mo, 24.09. 9:50 1035 keine Meldung
Mo, 24.09. 9:40 1035 keine Meldung
Mo, 24.09. 9:30 1034 + 2,5
Mo, 24.09. 9:20 1034 keine Meldung
Mo, 24.09. 9:10 1034 keine Meldung
Mo, 24.09. 9:00 1034 + 2,8
Mo, 24.09. 8:30 1034 + 2,8
Mo, 24.09. 8:00 1033 + 2,6
Mo, 24.09. 7:30 1033 + 2,7
Mo, 24.09. 7:00 1032 + 2,6
Ortszeit Schneehöhe (cm)
Mo, 24.09. 8:00 -
Mo, 24.09. 2:00 -
So, 23.09. 20:00 -
So, 23.09. 14:00 -
So, 23.09. 8:00 -
So, 23.09. 2:00 -
Sa, 22.09. 20:00 -
Sa, 22.09. 14:00 -
Ortszeit Schneehöhe (cm)
Mo, 24.09. 10:00 -
Mo, 24.09. 9:50 -
Mo, 24.09. 9:40 -
Mo, 24.09. 9:30 -
Mo, 24.09. 9:20 -
Mo, 24.09. 9:10 -
Mo, 24.09. 9:00 -
Mo, 24.09. 8:30 -
Mo, 24.09. 8:00 -
Mo, 24.09. 7:30 -
Mo, 24.09. 7:00 -
Link zu dieser Seite / Seite empfehlen

Das Wetter in ...